Portada
METAR-TAF:

METAR-TAF

Aeropuertos :

Altenstadt, Alemania

latitud: 47-50N, longitud: 010-52E, altitud: 739 m

Observación

El informe se hizo hace 1 hora y 9 minutos, a las 11:20 UTC
Viento 8 kt del este-noreste
Temperatura 10°C
Humedad 43%
Presión 1022 hPa

METAR: ETHA 041120Z AUTO 07008KT //// // ////// 10/M02 Q1022 ///

Hora: 14:29 (12:29 UTC)

Pronóstico

El informe se hizo hace 28 horas y 59 minutos, a las 07:30 UTC
Pronóstico válido del 03 a las 08 UTC al 03 a las 17 UTC
Viento 10 kt del oeste
Visibilidad 10 km o más
Nubes dispersas a una altura de 6000 ft
Evolucionando progresivamente
del 03 a las 14 UTC al 03 a las 16 UTC
Viento 10 kt del oeste-noroeste con ráfagas de 20 kt
Visibilidad: 0920 m
Escasas nubes a una altura de 2500 ft
Cielo nuboso a una altura de 6000 ft

TAF: ETHA 030730Z 0308/0317 28010KT 9999 NSW SCT060 BECMG 0314/0316 30010G20KT 9999 NSW FEW025 BKN060 CANCEL 0920

Observaciones y pronósticos meteorológicos de más de 4000 aeropuertos (mensajes METAR y TAF).

Los puntos amarillos y rojos representan las estaciones disponibles.

Ponga el ratón en el punto deseado para ver el nombre de la estación.

Haga clic para ver las observaciones y los pronósticos meteorológicos.

Para cambiar el mapa : haga clic en los botones verdes con una cruz de color negro para hacer un zoom, en el botón verde con un guión para alejar o en las flechas verdes para mapas adyacentes.


METAR-TAF: